createdAt,value
2016-02-01T00:00:25.382Z,11.94
2016-02-01T00:01:25.354Z,11.99
2016-02-01T00:02:25.340Z,11.91
2016-02-01T00:03:25.328Z,11.95
2016-02-01T00:04:25.287Z,12
2016-02-01T00:05:25.258Z,11.95
2016-02-01T00:06:25.245Z,12
2016-02-01T00:07:25.060Z,12.02
2016-02-01T00:08:25.203Z,11.94
2016-02-01T00:09:25.190Z,12.04
2016-02-01T00:10:25.162Z,12.03
2016-02-01T00:11:25.134Z,12.03
2016-02-01T00:12:25.120Z,12.03
2016-02-01T00:13:25.092Z,12.09
2016-02-01T00:14:25.064Z,12.04
2016-02-01T00:15:25.051Z,12.09
2016-02-01T00:16:25.022Z,12.03
2016-02-01T00:17:25.009Z,12.06
2016-02-01T00:18:24.981Z,12.12
2016-02-01T00:19:24.953Z,12.18
2016-02-01T00:20:24.940Z,12.09
2016-02-01T00:21:24.908Z,12.02
2016-02-01T00:22:24.894Z,12.04
2016-02-01T00:23:24.882Z,12.02
2016-02-01T00:24:24.850Z,12.04
2016-02-01T00:25:24.822Z,12.07
2016-02-01T00:26:24.763Z,12.03
2016-02-01T00:27:24.735Z,12.07
2016-02-01T00:28:24.707Z,12
2016-02-01T00:29:24.665Z,12.03
2016-02-01T00:30:24.631Z,12.12
2016-02-01T00:31:24.613Z,12.13
2016-02-01T00:32:24.595Z,12.04
2016-02-01T00:33:24.562Z,12.04
2016-02-01T00:34:24.527Z,12
2016-02-01T00:35:24.513Z,12
2016-02-01T00:36:24.498Z,12.04
2016-02-01T00:37:24.467Z,12.07
2016-02-01T00:38:24.436Z,12.02
2016-02-01T00:39:24.421Z,12.06
2016-02-01T00:40:24.394Z,12.04
2016-02-01T00:41:24.363Z,11.94
2016-02-01T00:42:24.351Z,12.09
2016-02-01T00:43:24.322Z,12.1
2016-02-01T00:44:24.291Z,11.97
2016-02-01T00:45:24.279Z,12.06
2016-02-01T00:46:24.250Z,12.1
2016-02-01T00:47:24.237Z,12.06
2016-02-01T00:48:24.225Z,11.99
2016-02-01T00:49:24.182Z,12.13
2016-02-01T00:50:24.170Z,12.07
2016-02-01T00:51:24.140Z,12
2016-02-01T00:52:24.128Z,12.04
2016-02-01T00:53:24.100Z,12.09
2016-02-01T00:54:24.074Z,11.99
2016-02-01T00:55:24.062Z,12.02
2016-02-01T00:56:24.023Z,12.1
2016-02-01T00:57:24.009Z,12.04
2016-02-01T00:58:23.995Z,12.03
2016-02-01T00:59:23.967Z,11.99
2016-02-01T01:00:23.940Z,12.09
2016-02-01T01:01:23.927Z,12.06
2016-02-01T01:02:23.915Z,11.95
2016-02-01T01:03:23.885Z,12.09
2016-02-01T01:04:23.857Z,11.97
2016-02-01T01:05:23.832Z,12.03
2016-02-01T01:06:23.818Z,12
2016-02-01T01:07:23.790Z,11.97
2016-02-01T01:08:23.762Z,12.02
2016-02-01T01:09:23.752Z,12.09
2016-02-01T01:10:23.739Z,12
2016-02-01T01:11:23.711Z,12.02
2016-02-01T01:12:23.683Z,12.04
2016-02-01T01:13:23.669Z,12.04
2016-02-01T01:14:23.673Z,12.06
2016-02-01T01:15:23.613Z,12.06
2016-02-01T01:16:23.600Z,12.09
2016-02-01T01:17:23.587Z,12.02
2016-02-01T01:18:23.558Z,12.04
2016-02-01T01:19:23.546Z,12.04
2016-02-01T01:20:23.517Z,12.07
2016-02-01T01:21:23.493Z,12.06
2016-02-01T01:22:23.465Z,12.07
2016-02-01T01:23:23.452Z,12.1
2016-02-01T01:24:23.423Z,12.03
2016-02-01T01:25:23.410Z,12.1
2016-02-01T01:26:23.382Z,12.03
2016-02-01T01:27:23.354Z,12.09
2016-02-01T01:28:23.340Z,12.07
2016-02-01T01:29:23.312Z,12.09
2016-02-01T01:30:23.284Z,12.09
2016-02-01T01:31:23.272Z,12.06
2016-02-01T01:32:23.258Z,12.18
2016-02-01T01:33:23.230Z,12.12
2016-02-01T01:34:23.203Z,12.09
2016-02-01T01:35:23.173Z,12.13
2016-02-01T01:36:23.176Z,12.17
2016-02-01T01:37:23.148Z,12.12
2016-02-01T01:38:23.120Z,12.12
2016-02-01T01:39:23.092Z,12.09
2016-02-01T01:40:23.079Z,12.15
2016-02-01T01:41:23.054Z,12.04
2016-02-01T01:42:23.040Z,12.18
2016-02-01T01:43:23.028Z,12.18
2016-02-01T01:44:22.999Z,12.15
2016-02-01T01:45:22.954Z,12.12
2016-02-01T01:46:22.942Z,12.12
2016-02-01T01:47:22.945Z,12.13
2016-02-01T01:48:22.901Z,12.1
2016-02-01T01:49:22.887Z,12.15
2016-02-01T01:50:22.863Z,12.22
2016-02-01T01:51:22.865Z,12.15
2016-02-01T01:52:22.821Z,12.21
2016-02-01T01:53:22.808Z,12.15
2016-02-01T01:54:22.781Z,12.24
2016-02-01T01:55:22.768Z,12.24
2016-02-01T01:56:22.724Z,12.27
2016-02-01T01:57:22.711Z,12.25
2016-02-01T01:58:22.680Z,12.22
2016-02-01T01:59:22.655Z,12.28
2016-02-01T02:00:22.643Z,12.21
2016-02-01T02:01:22.631Z,12.25
2016-02-01T02:02:22.603Z,12.24
2016-02-01T02:03:22.589Z,12.17
2016-02-01T02:04:22.561Z,12.2
2016-02-01T02:05:22.538Z,12.27
2016-02-01T02:06:22.510Z,12.24
2016-02-01T02:07:22.499Z,12.28
2016-02-01T02:08:22.469Z,12.28
2016-02-01T02:09:22.441Z,12.24
2016-02-01T02:10:22.429Z,12.28
2016-02-01T02:11:22.400Z,12.24
2016-02-01T02:12:22.389Z,12.28
2016-02-01T02:13:22.360Z,12.24
2016-02-01T02:14:22.347Z,12.37
2016-02-01T02:15:22.320Z,12.27
2016-02-01T02:16:22.291Z,12.39
2016-02-01T02:17:22.294Z,12.29
2016-02-01T02:18:22.266Z,12.36
2016-02-01T02:19:22.221Z,12.39
2016-02-01T02:20:22.209Z,12.35
2016-02-01T02:21:22.196Z,12.42
2016-02-01T02:22:22.182Z,12.29
2016-02-01T02:23:22.154Z,12.37
2016-02-01T02:24:22.127Z,12.36
2016-02-01T02:25:22.113Z,12.31
2016-02-01T02:26:22.086Z,12.37
2016-02-01T02:27:22.058Z,12.37
2016-02-01T02:28:22.044Z,12.36
2016-02-01T02:29:22.016Z,12.39
2016-02-01T02:30:21.990Z,12.42
2016-02-01T02:31:21.977Z,12.32
2016-02-01T02:32:21.964Z,12.35
2016-02-01T02:33:21.936Z,12.4
2016-02-01T02:34:21.922Z,12.37
2016-02-01T02:35:21.879Z,12.37
2016-02-01T02:36:21.867Z,12.37
2016-02-01T02:37:21.838Z,12.42
2016-02-01T02:38:21.825Z,12.37
2016-02-01T02:39:21.848Z,12.37
2016-02-01T02:40:21.804Z,12.39
2016-02-01T02:41:21.761Z,12.35
2016-02-01T02:42:21.731Z,12.39
2016-02-01T02:43:21.719Z,12.37
2016-02-01T02:44:21.691Z,12.39
2016-02-01T02:45:21.678Z,12.39
2016-02-01T02:46:21.652Z,12.37
2016-02-01T02:47:21.638Z,12.43
2016-02-01T02:48:21.657Z,12.36
2016-02-01T02:49:21.581Z,12.36
2016-02-01T02:50:21.569Z,12.35
2016-02-01T02:51:21.550Z,12.42
2016-02-01T02:52:21.522Z,12.47
2016-02-01T02:53:21.496Z,12.55
2016-02-01T02:54:21.483Z,12.5
2016-02-01T02:55:21.456Z,12.53
2016-02-01T02:56:21.443Z,12.53
2016-02-01T02:57:21.446Z,12.46
2016-02-01T02:58:21.386Z,12.47
2016-02-01T02:59:21.373Z,12.49
2016-02-01T03:00:21.361Z,12.54
2016-02-01T03:01:21.349Z,12.5
2016-02-01T03:02:21.304Z,12.5
2016-02-01T03:03:21.135Z,12.5
2016-02-01T03:04:21.265Z,12.53
2016-02-01T03:05:21.237Z,12.5
2016-02-01T03:06:21.225Z,12.54
2016-02-01T03:07:21.211Z,12.5
2016-02-01T03:08:21.183Z,12.47
2016-02-01T03:09:21.171Z,12.49
2016-02-01T03:10:21.141Z,12.54
2016-02-01T03:11:21.130Z,12.5
2016-02-01T03:12:21.101Z,12.53
2016-02-01T03:13:21.072Z,12.53
2016-02-01T03:14:21.046Z,12.54
2016-02-01T03:15:21.034Z,12.54
2016-02-01T03:16:21.003Z,12.49
2016-02-01T03:17:20.989Z,12.57
2016-02-01T03:18:20.977Z,12.58
2016-02-01T03:19:20.949Z,12.47
2016-02-01T03:20:20.923Z,12.49
2016-02-01T03:21:20.894Z,12.57
2016-02-01T03:22:20.881Z,12.49
2016-02-01T03:23:20.868Z,12.54
2016-02-01T03:24:20.828Z,12.54
2016-02-01T03:25:20.815Z,12.54
2016-02-01T03:26:20.802Z,12.54
2016-02-01T03:27:20.790Z,12.55
2016-02-01T03:28:20.793Z,12.55
2016-02-01T03:29:20.733Z,12.49
2016-02-01T03:30:20.705Z,12.5
2016-02-01T03:31:20.692Z,12.5
2016-02-01T03:32:20.679Z,12.49
2016-02-01T03:33:20.651Z,12.49
2016-02-01T03:34:20.622Z,12.46
2016-02-01T03:35:20.610Z,12.53
2016-02-01T03:36:20.597Z,12.47
2016-02-01T03:37:20.574Z,12.5
2016-02-01T03:38:20.545Z,12.47
2016-02-01T03:39:20.517Z,12.47
2016-02-01T03:40:20.491Z,12.47
2016-02-01T03:41:20.477Z,12.49
2016-02-01T03:42:20.466Z,12.53
2016-02-01T03:43:20.436Z,12.55
2016-02-01T03:44:20.424Z,12.5
2016-02-01T03:45:20.380Z,12.49
2016-02-01T03:46:20.366Z,12.5
2016-02-01T03:47:20.354Z,12.49
2016-02-01T03:48:20.325Z,12.49
2016-02-01T03:49:20.312Z,12.53
2016-02-01T03:50:20.284Z,12.54
2016-02-01T03:51:20.256Z,12.5
2016-02-01T03:52:20.232Z,12.46
2016-02-01T03:53:20.218Z,12.47
2016-02-01T03:54:20.206Z,12.36
2016-02-01T03:55:20.193Z,12.37
2016-02-01T03:56:20.166Z,12.49
2016-02-01T03:57:20.137Z,12.4
2016-02-01T03:58:20.107Z,12.39
2016-02-01T03:59:20.079Z,12.46
2016-02-01T04:00:20.066Z,12.49
2016-02-01T04:01:20.041Z,12.37
2016-02-01T04:02:20.028Z,12.36
2016-02-01T04:03:20.016Z,12.36
2016-02-01T04:04:19.988Z,12.37
2016-02-01T04:05:19.961Z,12.37
2016-02-01T04:06:19.933Z,12.37
2016-02-01T04:07:19.919Z,12.32
2016-02-01T04:08:19.907Z,12.35
2016-02-01T04:09:19.878Z,12.35
2016-02-01T04:10:19.865Z,12.39
2016-02-01T04:11:19.837Z,12.35
2016-02-01T04:12:19.808Z,12.37
2016-02-01T04:13:19.779Z,12.32
2016-02-01T04:14:19.766Z,12.37
2016-02-01T04:15:19.754Z,12.39
2016-02-01T04:16:19.725Z,12.43
2016-02-01T04:17:19.712Z,12.37
2016-02-01T04:18:19.684Z,12.4
2016-02-01T04:19:19.655Z,12.35
2016-02-01T04:20:19.642Z,12.42
2016-02-01T04:21:19.616Z,12.39
2016-02-01T04:22:19.619Z,12.39
2016-02-01T04:23:19.575Z,12.39
2016-02-01T04:24:19.546Z,12.45
2016-02-01T04:25:19.534Z,12.37
2016-02-01T04:26:19.506Z,12.42
2016-02-01T04:27:19.493Z,12.35
2016-02-01T04:28:19.464Z,12.42
2016-02-01T04:29:19.451Z,12.31
2016-02-01T04:30:19.441Z,12.32
2016-02-01T04:31:19.412Z,12.42
2016-02-01T04:32:19.385Z,12.37
2016-02-01T04:33:19.371Z,12.35
2016-02-01T04:34:19.344Z,12.45
2016-02-01T04:35:19.315Z,12.39
2016-02-01T04:36:19.301Z,12.39
2016-02-01T04:37:19.275Z,12.42
2016-02-01T04:38:19.262Z,12.42
2016-02-01T04:39:19.233Z,12.37
2016-02-01T04:40:19.206Z,12.47
2016-02-01T04:41:19.193Z,12.4
2016-02-01T04:42:19.180Z,12.39
2016-02-01T04:43:19.152Z,12.32
2016-02-01T04:44:19.123Z,12.37
2016-02-01T04:45:19.110Z,12.39
2016-02-01T04:46:19.082Z,12.4
2016-02-01T04:47:19.054Z,12.36
2016-02-01T04:48:19.057Z,12.35
2016-02-01T04:49:19.013Z,12.43
2016-02-01T04:50:19.000Z,12.31
2016-02-01T04:51:18.976Z,12.36
2016-02-01T04:52:18.979Z,12.35
2016-02-01T04:53:18.935Z,12.36
2016-02-01T04:54:18.923Z,12.32
2016-02-01T04:55:18.894Z,12.39
2016-02-01T04:56:18.863Z,12.42
2016-02-01T04:57:18.850Z,12.31
2016-02-01T04:58:18.822Z,12.39
2016-02-01T04:59:18.808Z,12.36
2016-02-01T05:00:18.780Z,12.35
2016-02-01T05:01:18.767Z,12.31
2016-02-01T05:02:18.740Z,12.35
2016-02-01T05:03:18.728Z,12.37
2016-02-01T05:04:18.700Z,12.37
2016-02-01T05:05:18.672Z,12.35
2016-02-01T05:06:18.660Z,12.36
2016-02-01T05:07:18.647Z,12.32
2016-02-01T05:08:18.603Z,12.36
2016-02-01T05:09:18.589Z,12.35
2016-02-01T05:10:18.577Z,12.35
2016-02-01T05:11:18.549Z,12.36
2016-02-01T05:12:18.521Z,12.36
2016-02-01T05:13:18.507Z,12.37
2016-02-01T05:14:18.479Z,12.31
2016-02-01T05:15:18.451Z,12.28
2016-02-01T05:16:18.438Z,12.28
2016-02-01T05:17:18.425Z,12.31
2016-02-01T05:18:18.396Z,12.35
2016-02-01T05:19:18.370Z,12.29
2016-02-01T05:20:18.357Z,12.36
2016-02-01T05:21:18.328Z,12.28
2016-02-01T05:22:18.318Z,12.35
2016-02-01T05:23:18.288Z,12.28
2016-02-01T05:24:18.277Z,12.4
2016-02-01T05:25:18.248Z,12.37
2016-02-01T05:26:18.236Z,12.31
2016-02-01T05:27:18.207Z,12.36
2016-02-01T05:28:18.178Z,12.4
2016-02-01T05:29:18.165Z,12.36
2016-02-01T05:30:18.137Z,12.32
2016-02-01T05:31:18.109Z,12.4
2016-02-01T05:32:18.097Z,12.35
2016-02-01T05:33:18.084Z,12.42
2016-02-01T05:34:18.055Z,12.31
2016-02-01T05:35:18.026Z,12.39
2016-02-01T05:36:18.015Z,12.37
2016-02-01T05:37:17.987Z,12.42
2016-02-01T05:38:17.958Z,12.31
2016-02-01T05:39:17.961Z,12.37
2016-02-01T05:40:17.933Z,12.42
2016-02-01T05:41:17.904Z,12.37
2016-02-01T05:42:17.877Z,12.31
2016-02-01T05:43:17.847Z,12.37
2016-02-01T05:44:17.835Z,12.32
2016-02-01T05:45:17.823Z,12.36
2016-02-01T05:46:17.794Z,12.4
2016-02-01T05:47:17.772Z,12.32
2016-02-01T05:48:17.759Z,12.42
2016-02-01T05:49:17.730Z,12.32
2016-02-01T05:50:17.702Z,12.37
2016-02-01T05:51:17.675Z,12.42
2016-02-01T05:52:17.661Z,12.42
2016-02-01T05:53:17.649Z,12.4
2016-02-01T05:54:17.620Z,12.39
2016-02-01T05:55:17.608Z,12.35
2016-02-01T05:56:17.580Z,12.37
2016-02-01T05:57:17.583Z,12.42
2016-02-01T05:58:17.556Z,12.32
2016-02-01T05:59:17.512Z,12.4
2016-02-01T06:00:17.500Z,12.39
2016-02-01T06:01:17.475Z,12.36
2016-02-01T06:02:17.463Z,12.31
2016-02-01T06:03:17.436Z,12.36
2016-02-01T06:04:17.408Z,12.42
2016-02-01T06:05:17.380Z,12.37
2016-02-01T06:06:17.366Z,12.35
2016-02-01T06:07:17.342Z,12.32
2016-02-01T06:08:17.329Z,12.36
2016-02-01T06:09:17.300Z,12.37
2016-02-01T06:10:17.287Z,12.4
2016-02-01T06:11:17.259Z,12.39
2016-02-01T06:12:17.232Z,12.39
2016-02-01T06:13:17.219Z,12.31
2016-02-01T06:14:17.191Z,12.46
2016-02-01T06:15:17.163Z,12.45
2016-02-01T06:16:17.152Z,12.31
2016-02-01T06:17:17.139Z,12.42
2016-02-01T06:18:17.111Z,12.35
2016-02-01T06:19:17.083Z,12.42
2016-02-01T06:20:17.069Z,12.45
2016-02-01T06:21:17.048Z,12.36
2016-02-01T06:22:17.035Z,12.36
2016-02-01T06:23:17.008Z,12.32
2016-02-01T06:24:16.993Z,12.36
2016-02-01T06:25:16.965Z,12.4
2016-02-01T06:26:16.937Z,12.36
2016-02-01T06:27:16.909Z,12.31
2016-02-01T06:28:16.899Z,12.39
2016-02-01T06:29:16.870Z,12.32
2016-02-01T06:30:16.858Z,12.36
2016-02-01T06:31:16.829Z,12.36
2016-02-01T06:32:16.803Z,12.36
2016-02-01T06:33:16.790Z,12.36
2016-02-01T06:34:16.776Z,12.4
2016-02-01T06:35:16.745Z,12.35
2016-02-01T06:36:16.717Z,12.29
2016-02-01T06:37:16.722Z,12.35
2016-02-01T06:38:16.693Z,12.32
2016-02-01T06:39:16.650Z,12.36
2016-02-01T06:40:16.652Z,12.35
2016-02-01T06:41:16.609Z,12.31
2016-02-01T06:42:16.596Z,12.36
2016-02-01T06:43:16.585Z,12.42
2016-02-01T06:44:16.543Z,12.31
2016-02-01T06:45:16.530Z,12.36
2016-02-01T06:46:16.502Z,12.32
2016-02-01T06:47:16.493Z,12.31
2016-02-01T06:48:16.480Z,12.39
2016-02-01T06:49:16.436Z,12.39
2016-02-01T06:50:16.424Z,12.39
2016-02-01T06:51:16.395Z,12.37
2016-02-01T06:52:16.382Z,12.32
2016-02-01T06:53:16.369Z,12.45
2016-02-01T06:54:16.325Z,12.31
2016-02-01T06:55:16.312Z,12.39
2016-02-01T06:56:16.315Z,12.42
2016-02-01T06:57:16.289Z,12.42
2016-02-01T06:58:16.245Z,12.42
2016-02-01T06:59:16.232Z,12.42
2016-02-01T07:00:16.204Z,12.35
2016-02-01T07:01:16.190Z,12.45
2016-02-01T07:02:16.163Z,12.42
2016-02-01T07:03:16.135Z,12.45
2016-02-01T07:04:16.121Z,12.42
2016-02-01T07:05:16.108Z,12.35
2016-02-01T07:06:16.079Z,12.39
2016-02-01T07:07:16.051Z,12.36
2016-02-01T07:08:16.179Z,12.43
2016-02-01T07:09:16.009Z,12.42
2016-02-01T07:10:15.996Z,12.39
2016-02-01T07:11:15.968Z,12.39
2016-02-01T07:12:15.954Z,12.4
2016-02-01T07:13:15.928Z,12.36
2016-02-01T07:14:15.947Z,12.36
2016-02-01T07:15:15.887Z,12.32
2016-02-01T07:16:15.858Z,12.37
2016-02-01T07:17:15.845Z,12.37
2016-02-01T07:18:15.830Z,12.32
2016-02-01T07:19:15.802Z,12.32
2016-02-01T07:20:15.789Z,12.32
2016-02-01T07:21:15.760Z,12.35
2016-02-01T07:22:15.732Z,12.32
2016-02-01T07:23:15.720Z,12.32
2016-02-01T07:24:15.691Z,12.31
2016-02-01T07:25:15.678Z,12.29
2016-02-01T07:26:15.647Z,12.32
2016-02-01T07:27:15.636Z,12.37
2016-02-01T07:28:15.622Z,12.36
2016-02-01T07:29:15.580Z,12.32
2016-02-01T07:30:16.051Z,12.29
2016-02-01T07:31:15.538Z,12.37
2016-02-01T07:32:15.509Z,12.37
2016-02-01T07:33:15.347Z,12.32
2016-02-01T07:34:15.506Z,12.42
2016-02-01T07:35:15.462Z,12.35
2016-02-01T07:36:15.433Z,12.35
2016-02-01T07:37:15.421Z,12.37
2016-02-01T07:38:15.393Z,12.36
2016-02-01T07:39:15.364Z,12.39
2016-02-01T07:40:15.351Z,12.32
2016-02-01T07:41:15.323Z,12.4
2016-02-01T07:42:15.312Z,12.37
2016-02-01T07:43:15.283Z,12.39
2016-02-01T07:44:15.271Z,12.37
2016-02-01T07:45:15.242Z,12.32
2016-02-01T07:46:15.229Z,12.35
2016-02-01T07:47:15.201Z,12.32
2016-02-01T07:48:15.172Z,12.35
2016-02-01T07:49:15.164Z,12.37
2016-02-01T07:50:15.136Z,12.36
2016-02-01T07:51:15.106Z,12.36
2016-02-01T07:52:15.094Z,12.35
2016-02-01T07:53:15.190Z,12.36
2016-02-01T07:54:15.054Z,12.36
2016-02-01T07:55:15.025Z,12.35
2016-02-01T07:56:15.012Z,12.36
2016-02-01T07:57:15.015Z,12.35
2016-02-01T07:58:14.970Z,12.29
2016-02-01T07:59:14.942Z,12.35
2016-02-01T08:00:14.914Z,12.31
2016-02-01T08:01:14.901Z,12.29
2016-02-01T08:02:14.887Z,12.4
2016-02-01T08:03:14.859Z,12.31
2016-02-01T08:04:14.858Z,12.43
2016-02-01T08:05:14.815Z,12.35
2016-02-01T08:06:14.787Z,12.27
2016-02-01T08:07:14.777Z,12.32
2016-02-01T08:08:14.749Z,12.37
2016-02-01T08:09:14.736Z,12.36
2016-02-01T08:10:14.709Z,12.36
2016-02-01T08:11:14.695Z,12.29
2016-02-01T08:12:14.667Z,12.36
2016-02-01T08:13:14.670Z,12.32
2016-02-01T08:14:14.626Z,12.37
2016-02-01T08:15:14.597Z,12.36
2016-02-01T08:16:14.584Z,12.36
2016-02-01T08:17:14.556Z,12.36
2016-02-01T08:18:14.544Z,12.35
2016-02-01T08:19:14.515Z,12.35
2016-02-01T08:20:14.504Z,12.4
2016-02-01T08:21:14.475Z,12.36
2016-02-01T08:22:14.462Z,12.36
2016-02-01T08:23:14.435Z,12.39
2016-02-01T08:24:14.406Z,12.29
2016-02-01T08:25:14.393Z,12.32
2016-02-01T08:26:14.364Z,12.35
2016-02-01T08:27:14.335Z,12.35
2016-02-01T08:28:14.324Z,12.32
2016-02-01T08:29:14.310Z,12.35
2016-02-01T08:30:14.282Z,12.45
2016-02-01T08:31:14.254Z,12.31
2016-02-01T08:32:14.244Z,12.35
2016-02-01T08:33:14.059Z,12.35
2016-02-01T08:34:14.186Z,12.43
2016-02-01T08:35:14.175Z,12.31
2016-02-01T08:36:14.349Z,12.32
2016-02-01T08:37:14.134Z,12.36
2016-02-01T08:38:14.104Z,12.42
2016-02-01T08:39:14.093Z,12.4
2016-02-01T08:40:14.080Z,12.36
2016-02-01T08:41:14.035Z,12.39
2016-02-01T08:49:13.918Z,12.42
2016-02-01T08:50:13.857Z,12.4
2016-02-01T08:51:13.829Z,12.42
2016-02-01T08:52:13.816Z,12.42
2016-02-01T08:53:13.788Z,12.35
2016-02-01T08:54:13.775Z,12.35
2016-02-01T08:55:13.749Z,12.35
2016-02-01T08:56:13.735Z,12.35
2016-02-01T08:57:13.707Z,12.39
2016-02-01T08:58:13.679Z,12.4
2016-02-01T08:59:54.091Z,12.31
2016-02-01T09:00:13.638Z,12.39
2016-02-01T09:01:13.625Z,12.39
2016-02-01T09:02:13.596Z,12.35
2016-02-01T09:03:13.599Z,12.37
2016-02-01T09:04:13.587Z,12.32
2016-02-01T09:05:13.527Z,12.39
2016-02-01T09:06:13.514Z,12.37
2016-02-01T09:07:13.517Z,12.39
2016-02-01T09:08:13.472Z,12.31
2016-02-01T09:09:13.462Z,12.42
2016-02-01T09:10:13.434Z,12.42
2016-02-01T09:11:13.404Z,12.4
2016-02-01T09:12:13.392Z,12.45
2016-02-01T09:13:13.379Z,12.36
2016-02-01T09:14:13.351Z,12.31
2016-02-01T09:15:13.323Z,12.32
2016-02-01T09:16:13.294Z,12.35
2016-02-01T09:17:13.281Z,12.29
2016-02-01T09:18:13.269Z,12.37
2016-02-01T09:19:13.239Z,12.37
2016-02-01T09:20:13.218Z,12.36
2016-02-01T09:21:13.190Z,12.29
2016-02-01T09:22:13.198Z,12.28
2016-02-01T09:23:13.169Z,12.37
2016-02-01T09:24:13.140Z,12.28
2016-02-01T09:25:13.106Z,12.25
2016-02-01T09:26:16.691Z,12.29
2016-02-01T09:28:13.057Z,12.24
2016-02-01T09:29:13.030Z,12.22
2016-02-01T09:30:13.003Z,12.18
2016-02-01T09:31:12.985Z,12.2
2016-02-01T09:32:12.942Z,12.27
2016-02-01T09:33:12.930Z,12.2
2016-02-01T09:34:12.889Z,12.2
2016-02-01T09:35:12.847Z,12.21
2016-02-01T09:36:12.810Z,12.17
2016-02-01T09:37:12.792Z,12.29
2016-02-01T09:38:12.790Z,12.21
2016-02-01T09:39:12.740Z,12.25
2016-02-01T09:40:12.707Z,12.24
2016-02-01T09:41:12.695Z,12.28
2016-02-01T09:42:12.680Z,12.25
2016-02-01T09:43:12.635Z,12.21
2016-02-01T09:44:12.620Z,12.2
2016-02-01T09:45:12.590Z,12.22
2016-02-01T09:46:12.564Z,12.17
2016-02-01T09:47:12.551Z,12.27
2016-02-01T09:48:12.724Z,12.25
2016-02-01T09:49:12.508Z,12.22
2016-02-01T09:50:12.505Z,12.17
2016-02-01T09:51:12.477Z,12.18
2016-02-01T09:52:12.448Z,12.18
2016-02-01T09:53:12.419Z,12.24
2016-02-01T09:54:12.438Z,12.2
2016-02-01T09:55:12.378Z,12.27
2016-02-01T09:56:12.349Z,12.27
2016-02-01T09:57:12.336Z,12.22
2016-02-01T09:58:12.308Z,12.18
2016-02-01T09:59:12.327Z,12.25
2016-02-01T10:00:12.486Z,12.2
2016-02-01T10:01:12.319Z,12.2
2016-02-01T10:02:12.243Z,12.18
2016-02-01T10:03:12.215Z,12.27
2016-02-01T10:04:12.187Z,12.27
2016-02-01T10:05:12.173Z,12.17
2016-02-01T10:06:12.146Z,12.17
2016-02-01T10:07:12.133Z,12.2
2016-02-01T10:08:12.151Z,12.27
2016-02-01T10:09:12.075Z,12.18
2016-02-01T10:10:12.068Z,12.18
2016-02-01T10:11:12.054Z,12.27
2016-02-01T10:12:12.026Z,12.15
2016-02-01T10:13:12.107Z,12.22
2016-02-01T10:14:11.984Z,12.17
2016-02-01T10:15:11.956Z,12.15
2016-02-01T10:16:11.974Z,12.2
2016-02-01T10:17:12.133Z,12.25
2016-02-01T10:18:11.901Z,12.24
2016-02-01T10:19:11.890Z,12.27
2016-02-01T10:20:11.846Z,12.25
2016-02-01T10:21:11.863Z,12.2
2016-02-01T10:22:11.806Z,12.22
2016-02-01T10:23:11.793Z,12.17
2016-02-01T10:24:11.796Z,12.15
2016-02-01T10:25:11.815Z,12.12
2016-02-01T10:26:11.755Z,12.12
2016-02-01T10:27:11.711Z,12.22
2016-02-01T10:28:11.730Z,12.18
2016-02-01T10:29:11.670Z,12.03
2016-02-01T10:30:11.688Z,12.09
2016-02-01T10:31:11.647Z,12.03
2016-02-01T10:32:11.618Z,12.1
2016-02-01T10:33:11.590Z,12.06
2016-02-01T10:34:11.577Z,11.99
2016-02-01T10:35:11.580Z,12.09
2016-02-01T10:36:11.533Z,11.97
2016-02-01T10:37:11.507Z,12
2016-02-01T10:38:11.478Z,12
2016-02-01T10:39:11.564Z,11.95
2016-02-01T10:40:11.878Z,12
2016-02-01T10:41:11.397Z,11.99
2016-02-01T10:42:11.384Z,11.99
2016-02-01T10:43:11.369Z,11.9
2016-02-01T10:44:11.346Z,11.87
2016-02-01T10:45:11.318Z,11.9
2016-02-01T10:46:11.289Z,11.91
2016-02-01T10:47:11.260Z,11.94
2016-02-01T10:48:11.248Z,11.9
2016-02-01T10:49:11.250Z,11.95
2016-02-01T10:50:11.206Z,11.81
2016-02-01T10:51:11.189Z,11.87
2016-02-01T10:52:11.161Z,11.83
2016-02-01T10:53:11.163Z,11.88
2016-02-01T10:54:11.119Z,11.86
2016-02-01T10:55:11.107Z,11.83
2016-02-01T10:56:11.066Z,11.84
2016-02-01T10:57:11.115Z,11.81
2016-02-01T10:58:11.039Z,11.84
2016-02-01T10:59:11.011Z,11.81
2016-02-01T11:00:11.000Z,11.84
2016-02-01T11:01:10.970Z,11.84
2016-02-01T11:02:10.942Z,11.91
2016-02-01T11:03:11.023Z,11.88
2016-02-01T11:04:10.900Z,11.87
2016-02-01T11:05:10.888Z,11.9
2016-02-01T11:06:10.875Z,11.87
2016-02-01T11:07:10.847Z,11.87
2016-02-01T11:08:10.833Z,11.88
2016-02-01T11:09:10.804Z,11.83
2016-02-01T11:10:10.776Z,11.86
2016-02-01T11:11:10.747Z,11.78
2016-02-01T11:12:10.737Z,11.83
2016-02-01T11:13:10.724Z,11.75
2016-02-01T11:14:10.710Z,11.78
2016-02-01T11:15:10.667Z,11.77
2016-02-01T11:16:10.658Z,11.78
2016-02-01T11:17:10.644Z,11.78
2016-02-01T11:18:10.600Z,11.78
2016-02-01T11:19:10.588Z,11.69
2016-02-01T11:20:10.559Z,11.78
2016-02-01T11:21:10.581Z,11.73
2016-02-01T11:22:10.521Z,11.78
2016-02-01T11:23:10.510Z,11.7
2016-02-01T11:24:10.482Z,11.7
2016-02-01T11:25:10.453Z,11.78
2016-02-01T11:26:10.441Z,11.73
2016-02-01T11:27:10.411Z,11.75
2016-02-01T11:28:10.399Z,11.72
2016-02-01T11:29:10.385Z,11.81
2016-02-01T11:30:10.341Z,11.77
2016-02-01T11:31:10.329Z,11.8
2016-02-01T11:32:10.303Z,11.81
2016-02-01T11:33:10.290Z,11.84
2016-02-01T11:34:10.293Z,11.81
2016-02-01T11:35:10.265Z,11.77
2016-02-01T11:36:10.220Z,11.81
2016-02-01T11:37:10.192Z,11.77
2016-02-01T11:38:10.179Z,11.75
2016-02-01T11:39:10.151Z,11.81
2016-02-01T11:40:10.138Z,11.83
2016-02-01T11:41:10.114Z,11.86
2016-02-01T11:42:10.085Z,11.8
2016-02-01T11:43:10.074Z,11.84
2016-02-01T11:44:10.044Z,11.83
2016-02-01T11:45:10.032Z,11.86
2016-02-01T11:46:10.003Z,11.86
2016-02-01T11:47:09.974Z,11.83
2016-02-01T11:48:09.963Z,11.83
2016-02-01T11:49:09.933Z,11.84
2016-02-01T11:50:09.921Z,11.87
2016-02-01T11:51:09.907Z,11.91
2016-02-01T11:52:09.879Z,11.9
2016-02-01T11:53:09.849Z,11.9
2016-02-01T11:54:09.836Z,11.97
2016-02-01T11:55:09.822Z,11.84
2016-02-01T11:56:09.622Z,11.9
2016-02-01T11:57:09.769Z,12
2016-02-01T11:58:09.740Z,11.97
2016-02-01T11:59:09.727Z,11.91
2016-02-01T12:00:09.714Z,11.99
2016-02-01T12:01:09.686Z,11.94
2016-02-01T12:02:09.658Z,11.95
2016-02-01T12:03:09.645Z,11.95
2016-02-01T12:04:09.617Z,11.94
2016-02-01T12:05:09.588Z,11.99
2016-02-01T12:06:09.575Z,11.91
2016-02-01T12:07:09.549Z,11.97
2016-02-01T12:08:09.536Z,11.91
2016-02-01T12:09:09.523Z,11.95
2016-02-01T12:10:09.480Z,11.94
2016-02-01T12:11:09.466Z,11.95
2016-02-01T12:12:09.438Z,11.9
2016-02-01T12:13:09.426Z,11.91
2016-02-01T12:14:09.398Z,11.95
2016-02-01T12:15:09.384Z,11.86
2016-02-01T12:16:09.356Z,11.97
2016-02-01T12:17:09.359Z,11.9
2016-02-01T12:18:09.333Z,12
2016-02-01T12:19:09.289Z,11.97
2016-02-01T12:20:09.275Z,12.02
2016-02-01T12:21:09.247Z,12.03
2016-02-01T12:22:09.234Z,11.94
2016-02-01T12:23:09.209Z,11.99
2016-02-01T12:24:09.189Z,12.09
2016-02-01T12:25:09.164Z,12.1
2016-02-01T12:26:09.230Z,12.07
2016-02-01T12:27:09.122Z,12.1
2016-02-01T12:28:09.110Z,12.03
2016-02-01T12:29:09.097Z,12.13
2016-02-01T12:30:09.053Z,12.06
2016-02-01T12:31:09.055Z,12.07
2016-02-01T12:32:09.026Z,12.07
2016-02-01T12:33:09.030Z,12.04
2016-02-01T12:34:08.969Z,12.12
2016-02-01T12:35:08.972Z,12.1
2016-02-01T12:36:08.943Z,12.04
2016-02-01T12:37:08.915Z,12.07
2016-02-01T12:38:08.887Z,12.09
2016-02-01T12:39:08.859Z,12.17
2016-02-01T12:40:08.846Z,12.07
2016-02-01T12:41:08.911Z,12.04
2016-02-01T12:42:08.805Z,12.1
2016-02-01T12:43:08.776Z,12.13
2016-02-01T12:44:08.764Z,12.22
2016-02-01T12:45:08.750Z,12.12
2016-02-01T12:46:08.722Z,12.12
2016-02-01T12:47:08.693Z,12.13
2016-02-01T12:48:08.668Z,12.12
2016-02-01T12:49:08.656Z,12.15
2016-02-01T12:50:08.628Z,12.17
2016-02-01T12:51:08.614Z,12.13
2016-02-01T12:52:08.587Z,12.17
2016-02-01T12:53:08.653Z,12.13
2016-02-01T12:54:08.560Z,12.13
2016-02-01T12:55:08.532Z,12.18
2016-02-01T12:56:08.503Z,12.15
2016-02-01T12:57:08.490Z,12.1
2016-02-01T12:58:08.462Z,12.18
2016-02-01T13:05:08.309Z,12.21
2016-02-01T13:15:51.230Z,12.29
2016-02-01T13:27:34.712Z,12.24
2016-02-01T13:28:34.684Z,12.27
2016-02-01T13:29:34.655Z,12.28
2016-02-01T13:30:34.643Z,12.28